createdAt,value
2022-09-22T00:01:22.583Z,70.04
2022-09-22T00:03:52.100Z,70.00
2022-09-22T00:06:24.493Z,70.07
2022-09-22T00:08:54.553Z,70.22
2022-09-22T00:11:25.365Z,70.45
2022-09-22T00:13:56.035Z,70.48
2022-09-22T00:16:26.913Z,70.39
2022-09-22T00:18:55.436Z,70.58
2022-09-22T00:21:27.811Z,70.28
2022-09-22T00:23:56.431Z,70.73
2022-09-22T00:26:25.571Z,71.01
2022-09-22T00:28:53.447Z,70.94
2022-09-22T00:31:23.911Z,71.07
2022-09-22T00:33:52.778Z,71.27
2022-09-22T00:36:22.825Z,71.54
2022-09-22T00:38:52.613Z,71.43
2022-09-22T00:41:23.294Z,71.60
2022-09-22T00:44:12.668Z,71.83
2022-09-22T00:46:42.075Z,72.20
2022-09-22T00:49:10.521Z,72.37
2022-09-22T00:51:41.980Z,72.37
2022-09-22T00:54:15.679Z,72.46
2022-09-22T00:56:48.705Z,72.27
2022-09-22T00:59:20.157Z,72.42
2022-09-22T01:01:49.212Z,72.71
2022-09-22T01:04:17.316Z,72.81
2022-09-22T01:06:45.302Z,73.04
2022-09-22T01:09:15.636Z,73.29
2022-09-22T01:11:44.261Z,73.08
2022-09-22T01:14:23.198Z,73.46
2022-09-22T01:16:57.915Z,73.07
2022-09-22T01:20:03.346Z,74.50
2022-09-22T01:22:47.616Z,73.73
2022-09-22T01:25:39.934Z,74.17
2022-09-22T01:28:23.989Z,74.11
2022-09-22T01:30:59.207Z,74.50
2022-09-22T01:33:39.242Z,74.02
2022-09-22T01:36:17.619Z,73.17
2022-09-22T01:38:58.584Z,73.13
2022-09-22T01:41:43.259Z,73.29
2022-09-22T01:44:16.602Z,73.10
2022-09-22T01:46:54.120Z,73.69
2022-09-22T01:49:24.050Z,73.34
2022-09-22T01:51:56.315Z,73.06
2022-09-22T01:54:29.678Z,72.91
2022-09-22T01:57:01.777Z,73.38
2022-09-22T01:59:34.919Z,73.67
2022-09-22T02:02:08.271Z,73.87
2022-09-22T02:04:42.016Z,73.94
2022-09-22T02:07:16.815Z,74.92
2022-09-22T02:09:48.398Z,74.73
2022-09-22T02:12:18.624Z,74.80
2022-09-22T02:14:47.061Z,74.82
2022-09-22T02:17:17.390Z,74.72
2022-09-22T02:19:45.670Z,74.28
2022-09-22T02:22:14.142Z,74.40
2022-09-22T02:24:43.659Z,74.23
2022-09-22T02:27:16.486Z,74.37
2022-09-22T02:29:50.766Z,73.92
2022-09-22T02:32:20.844Z,75.57
2022-09-22T02:34:49.409Z,75.64
2022-09-22T02:37:23.471Z,75.61
2022-09-22T02:40:00.901Z,75.96
2022-09-22T02:42:32.141Z,75.85
2022-09-22T02:45:06.476Z,75.39
2022-09-22T02:47:41.470Z,75.51
2022-09-22T02:50:12.246Z,75.30
2022-09-22T02:52:41.159Z,74.83
2022-09-22T02:55:10.980Z,74.60
2022-09-22T02:57:38.836Z,75.12
2022-09-22T03:00:07.940Z,75.73
2022-09-22T03:02:37.364Z,76.11
2022-09-22T03:05:05.826Z,75.73
2022-09-22T03:07:33.855Z,75.47
2022-09-22T03:10:01.768Z,75.27
2022-09-22T03:12:29.701Z,74.79
2022-09-22T03:14:57.646Z,74.95
2022-09-22T03:17:25.571Z,75.31
2022-09-22T03:19:54.862Z,75.77
2022-09-22T03:22:22.798Z,75.44
2022-09-22T03:24:50.702Z,75.28
2022-09-22T03:27:18.761Z,75.20
2022-09-22T03:29:46.678Z,75.38
2022-09-22T03:32:14.573Z,75.01
2022-09-22T03:34:42.481Z,75.25
2022-09-22T03:37:11.770Z,75.35
2022-09-22T03:39:39.741Z,75.37
2022-09-22T03:42:08.546Z,75.29
2022-09-22T03:44:36.576Z,75.75
2022-09-22T03:47:04.918Z,76.21
2022-09-22T03:49:33.029Z,76.23
2022-09-22T03:52:00.978Z,75.95
2022-09-22T03:54:30.502Z,75.85
2022-09-22T03:56:58.875Z,75.91
2022-09-22T03:59:26.792Z,75.73
2022-09-22T04:01:58.229Z,76.21
2022-09-22T04:04:26.472Z,76.38
2022-09-22T04:06:54.400Z,76.12
2022-09-22T04:09:22.388Z,76.58
2022-09-22T04:11:51.683Z,76.75
2022-09-22T04:14:19.630Z,76.81
2022-09-22T04:16:47.563Z,76.92
2022-09-22T04:19:15.599Z,77.34
2022-09-22T04:21:43.489Z,77.41
2022-09-22T04:24:11.532Z,76.94
2022-09-22T04:26:47.787Z,77.06
2022-09-22T04:29:25.861Z,77.62
2022-09-22T04:31:55.064Z,77.77
2022-09-22T04:34:22.985Z,78.04
2022-09-22T04:36:50.976Z,78.21
2022-09-22T04:39:23.051Z,78.23
2022-09-22T04:41:52.379Z,78.24
2022-09-22T04:44:20.333Z,78.79
2022-09-22T04:46:50.284Z,79.11
2022-09-22T04:49:18.910Z,78.98
2022-09-22T04:51:46.908Z,79.21
2022-09-22T04:54:14.921Z,79.19
2022-09-22T04:56:42.855Z,79.49
2022-09-22T04:59:11.904Z,79.56
2022-09-22T05:01:39.923Z,79.85
2022-09-22T05:04:09.385Z,80.18
2022-09-22T05:06:37.466Z,79.86
2022-09-22T05:09:05.824Z,79.62
2022-09-22T05:11:34.352Z,79.99
2022-09-22T05:14:02.237Z,80.66
2022-09-22T05:16:32.330Z,80.01
2022-09-22T05:19:00.407Z,79.84
2022-09-22T05:21:30.056Z,79.81
2022-09-22T05:23:58.091Z,79.84
2022-09-22T05:26:26.160Z,80.01
2022-09-22T05:28:54.264Z,79.84
2022-09-22T05:31:22.270Z,80.24
2022-09-22T05:33:50.345Z,79.79
2022-09-22T05:36:18.377Z,79.94
2022-09-22T05:38:47.685Z,80.08
2022-09-22T05:41:15.580Z,79.74
2022-09-22T05:43:43.503Z,78.88
2022-09-22T05:46:11.554Z,78.84
2022-09-22T05:48:39.542Z,78.40
2022-09-22T05:51:07.412Z,78.21
2022-09-22T05:53:35.330Z,77.98
2022-09-22T05:56:04.869Z,77.97
2022-09-22T05:58:33.127Z,77.66
2022-09-22T06:01:01.103Z,78.22
2022-09-22T06:03:29.082Z,78.45
2022-09-22T06:05:57.012Z,78.40
2022-09-22T06:08:24.959Z,78.64
2022-09-22T06:10:52.907Z,79.49
2022-09-22T06:13:22.214Z,79.39
2022-09-22T06:15:50.102Z,78.65
2022-09-22T06:18:24.133Z,78.50
2022-09-22T06:20:52.590Z,78.67
2022-09-22T06:23:20.492Z,77.97
2022-09-22T06:25:48.466Z,77.58
2022-09-22T06:28:16.814Z,77.88
2022-09-22T06:30:46.908Z,77.59
2022-09-22T06:33:14.808Z,77.89
2022-09-22T06:35:42.904Z,77.86
2022-09-22T06:38:14.859Z,77.68
2022-09-22T06:40:43.620Z,77.48
2022-09-22T06:43:22.676Z,77.55
2022-09-22T06:45:53.248Z,77.70
2022-09-22T06:48:23.967Z,77.93
2022-09-22T06:50:53.703Z,77.87
2022-09-22T06:53:25.566Z,78.09
2022-09-22T06:55:54.958Z,78.81
2022-09-22T06:58:23.334Z,78.79
2022-09-22T07:00:53.809Z,78.34
2022-09-22T07:03:26.387Z,78.34
2022-09-22T07:05:56.576Z,78.35
2022-09-22T07:08:25.865Z,78.19
2022-09-22T07:10:56.266Z,78.24
2022-09-22T07:13:24.526Z,77.83
2022-09-22T07:15:55.397Z,78.09
2022-09-22T07:18:23.355Z,78.42
2022-09-22T07:20:51.255Z,78.48
2022-09-22T07:23:21.086Z,78.30
2022-09-22T07:25:54.184Z,78.05
2022-09-22T07:28:22.594Z,78.80
2022-09-22T07:30:50.545Z,78.46
2022-09-22T07:33:19.855Z,78.25
2022-09-22T07:35:47.843Z,77.71
2022-09-22T07:38:16.349Z,77.37
2022-09-22T07:40:53.006Z,76.73
2022-09-22T07:43:20.923Z,76.29
2022-09-22T07:45:55.670Z,75.83
2022-09-22T07:48:37.620Z,75.63
2022-09-22T07:51:06.656Z,75.94
2022-09-22T07:53:34.728Z,74.77
2022-09-22T07:56:07.402Z,74.35
2022-09-22T07:58:35.445Z,74.17
2022-09-22T08:01:07.849Z,74.91
2022-09-22T08:03:38.116Z,73.89
2022-09-22T08:06:10.378Z,73.70
2022-09-22T08:08:42.592Z,73.87
2022-09-22T08:11:15.053Z,74.11
2022-09-22T08:13:44.415Z,74.57
2022-09-22T08:16:12.364Z,73.63
2022-09-22T08:18:41.712Z,72.89
2022-09-22T08:21:09.772Z,73.61
2022-09-22T08:23:38.569Z,73.59
2022-09-22T08:26:08.523Z,73.24
2022-09-22T08:28:36.747Z,72.41
2022-09-22T08:31:04.818Z,72.66
2022-09-22T08:33:32.974Z,72.68
2022-09-22T08:36:03.680Z,72.16
2022-09-22T08:38:34.092Z,71.92
2022-09-22T08:41:15.165Z,71.48
2022-09-22T08:43:50.409Z,71.95
2022-09-22T08:46:18.433Z,71.94
2022-09-22T08:49:07.554Z,71.13
2022-09-22T08:51:53.488Z,71.10
2022-09-22T08:54:23.251Z,71.43
2022-09-22T08:57:01.895Z,74.72
2022-09-22T08:59:36.027Z,74.05
2022-09-22T09:02:32.478Z,73.25
2022-09-22T09:05:42.002Z,71.23
2022-09-22T09:08:30.410Z,71.13
2022-09-22T09:11:08.058Z,69.98
2022-09-22T09:13:49.215Z,71.10
2022-09-22T09:16:34.240Z,70.53
2022-09-22T09:19:12.129Z,70.24
2022-09-22T09:21:44.899Z,69.37
2022-09-22T09:27:16.657Z,68.53
2022-09-22T09:29:54.100Z,68.23
2022-09-22T09:32:33.229Z,67.68
2022-09-22T09:35:01.515Z,68.20
2022-09-22T09:37:30.474Z,68.18
2022-09-22T09:40:04.552Z,67.74
2022-09-22T09:42:36.812Z,66.56
2022-09-22T09:45:05.790Z,67.54
2022-09-22T09:47:48.448Z,69.16
2022-09-22T09:50:17.164Z,67.21
2022-09-22T09:52:46.192Z,67.29
2022-09-22T09:55:27.338Z,65.61
2022-09-22T09:58:07.754Z,65.29
2022-09-22T10:00:43.194Z,66.55
2022-09-22T10:03:17.499Z,65.68
2022-09-22T10:06:00.239Z,64.53
2022-09-22T10:08:32.210Z,65.48
2022-09-22T10:11:02.057Z,66.05
2022-09-22T10:13:34.224Z,65.38
2022-09-22T10:16:08.527Z,64.92
2022-09-22T10:18:40.480Z,65.72
2022-09-22T10:21:15.878Z,64.44
2022-09-22T10:23:44.880Z,65.15
2022-09-22T10:26:23.001Z,63.33
2022-09-22T10:29:18.280Z,66.98
2022-09-22T10:32:16.112Z,65.88
2022-09-22T10:34:47.242Z,64.55
2022-09-22T10:37:18.944Z,63.97
2022-09-22T10:39:50.657Z,63.69
2022-09-22T10:42:31.956Z,63.71
2022-09-22T10:45:03.660Z,64.20
2022-09-22T10:47:44.529Z,62.81
2022-09-22T10:50:37.355Z,62.53
2022-09-22T10:53:25.639Z,63.65
2022-09-22T10:56:04.201Z,63.68
2022-09-22T10:59:03.815Z,62.24
2022-09-22T11:01:43.396Z,63.08
2022-09-22T11:04:26.988Z,62.89
2022-09-22T11:07:24.338Z,62.17
2022-09-22T11:10:15.087Z,61.52
2022-09-22T11:12:51.377Z,62.33
2022-09-22T11:15:45.863Z,59.64
2022-09-22T11:18:44.290Z,60.29
2022-09-22T11:21:31.299Z,60.95
2022-09-22T11:24:18.921Z,60.07
2022-09-22T11:26:49.703Z,59.96
2022-09-22T11:29:41.795Z,59.33
2022-09-22T11:32:25.955Z,59.41
2022-09-22T11:35:23.319Z,58.77
2022-09-22T11:38:03.745Z,60.05
2022-09-22T11:40:45.040Z,61.26
2022-09-22T11:43:31.484Z,59.54
2022-09-22T11:46:08.766Z,58.60
2022-09-22T11:48:56.197Z,59.77
2022-09-22T11:51:34.816Z,59.17
2022-09-22T11:54:25.928Z,59.58
2022-09-22T11:56:58.005Z,59.53
2022-09-22T11:59:36.613Z,59.63
2022-09-22T12:02:15.307Z,60.41
2022-09-22T12:04:49.220Z,58.82
2022-09-22T12:07:20.382Z,58.92
2022-09-22T12:09:54.071Z,58.09
2022-09-22T12:12:25.315Z,58.62
2022-09-22T12:15:00.199Z,57.95
2022-09-22T12:17:36.775Z,57.33
2022-09-22T12:20:22.998Z,55.28
2022-09-22T12:23:34.785Z,55.13
2022-09-22T12:26:06.350Z,55.75
2022-09-22T12:28:40.521Z,53.67
2022-09-22T12:31:12.699Z,53.72
2022-09-22T12:33:47.845Z,53.64
2022-09-22T12:36:18.223Z,53.58
2022-09-22T12:38:46.954Z,54.00
2022-09-22T12:41:19.455Z,51.38
2022-09-22T12:43:48.756Z,52.33
2022-09-22T12:46:25.852Z,51.46
2022-09-22T12:48:54.015Z,51.61
2022-09-22T12:51:34.300Z,52.21
2022-09-22T12:54:48.017Z,51.66
2022-09-22T12:57:28.217Z,50.84
2022-09-22T12:59:59.756Z,51.61
2022-09-22T13:02:30.992Z,51.99
2022-09-22T13:05:36.976Z,52.33
2022-09-22T13:08:06.339Z,52.12
2022-09-22T13:10:52.635Z,51.50
2022-09-22T13:13:33.813Z,50.95
2022-09-22T13:16:03.634Z,51.19
2022-09-22T13:18:34.502Z,51.42
2022-09-22T13:21:03.988Z,51.23
2022-09-22T13:23:33.401Z,51.02
2022-09-22T13:26:08.562Z,50.53
2022-09-22T13:28:36.559Z,50.95
2022-09-22T13:31:10.886Z,50.87
2022-09-22T13:33:38.889Z,50.86
2022-09-22T13:36:09.792Z,50.36
2022-09-22T13:38:43.816Z,51.12
2022-09-22T13:41:13.679Z,50.45
2022-09-22T13:43:45.554Z,51.37
2022-09-22T13:46:22.572Z,50.64
2022-09-22T13:48:52.447Z,50.99
2022-09-22T13:51:20.431Z,50.95
2022-09-22T13:53:53.549Z,49.97
2022-09-22T13:56:23.500Z,49.73
2022-09-22T13:58:54.471Z,50.32
2022-09-22T14:01:24.346Z,50.04
2022-09-22T14:03:53.887Z,50.18
2022-09-22T14:06:24.082Z,50.49
2022-09-22T14:08:55.124Z,49.57
2022-09-22T14:11:25.118Z,50.11
2022-09-22T14:14:02.672Z,49.29
2022-09-22T14:16:35.747Z,48.88
2022-09-22T14:19:07.651Z,49.49
2022-09-22T14:21:42.763Z,49.27
2022-09-22T14:24:14.007Z,49.71
2022-09-22T14:26:47.566Z,47.94
2022-09-22T14:29:21.331Z,48.18
2022-09-22T14:31:53.679Z,49.07
2022-09-22T14:34:26.483Z,48.51
2022-09-22T14:36:56.279Z,47.78
2022-09-22T14:39:31.907Z,49.12
2022-09-22T14:42:09.250Z,49.51
2022-09-22T14:44:44.258Z,47.85
2022-09-22T14:47:25.808Z,46.08
2022-09-22T14:50:18.814Z,46.64
2022-09-22T14:52:55.836Z,48.05
2022-09-22T14:55:35.949Z,48.19
2022-09-22T14:58:08.599Z,47.74
2022-09-22T15:00:55.492Z,48.25
2022-09-22T15:03:27.781Z,48.26
2022-09-22T15:05:59.940Z,47.05
2022-09-22T15:08:28.894Z,46.83
2022-09-22T15:10:59.456Z,47.43
2022-09-22T15:13:40.068Z,45.59
2022-09-22T15:16:40.431Z,46.50
2022-09-22T15:19:13.178Z,45.61
2022-09-22T15:21:48.499Z,46.88
2022-09-22T15:24:26.196Z,47.27
2022-09-22T15:26:57.342Z,47.13
2022-09-22T15:29:25.283Z,46.34
2022-09-22T15:31:56.019Z,46.13
2022-09-22T15:34:23.979Z,47.10
2022-09-22T15:36:53.226Z,46.21
2022-09-22T15:39:23.185Z,46.33
2022-09-22T15:41:51.745Z,46.05
2022-09-22T15:44:19.732Z,46.05
2022-09-22T15:46:51.396Z,45.64
2022-09-22T15:49:26.200Z,45.86
2022-09-22T15:51:55.960Z,45.37
2022-09-22T15:54:25.133Z,45.07
2022-09-22T15:56:55.097Z,45.19
2022-09-22T15:59:28.125Z,44.85
2022-09-22T16:01:57.219Z,44.55
2022-09-22T16:04:30.104Z,44.46
2022-09-22T16:07:01.228Z,44.01
2022-09-22T16:09:29.473Z,44.22
2022-09-22T16:11:57.469Z,45.07
2022-09-22T16:14:25.444Z,45.38
2022-09-22T16:16:53.456Z,45.30
2022-09-22T16:19:21.434Z,44.56
2022-09-22T16:21:53.006Z,44.59
2022-09-22T16:24:22.747Z,44.33
2022-09-22T16:26:51.372Z,44.23
2022-09-22T16:29:19.307Z,44.59
2022-09-22T16:31:47.464Z,44.40
2022-09-22T16:34:15.400Z,44.76
2022-09-22T16:36:44.645Z,44.33
2022-09-22T16:39:13.975Z,44.06
2022-09-22T16:41:45.761Z,44.21
2022-09-22T16:44:13.896Z,44.34
2022-09-22T16:46:41.901Z,44.96
2022-09-22T16:49:11.750Z,45.00
2022-09-22T16:51:41.921Z,45.50
2022-09-22T16:54:14.322Z,46.77
2022-09-22T16:56:46.151Z,46.63
2022-09-22T16:59:16.687Z,46.63
2022-09-22T17:01:44.938Z,46.35
2022-09-22T17:04:15.894Z,46.19
2022-09-22T17:06:44.578Z,47.23
2022-09-22T17:09:14.111Z,47.25
2022-09-22T17:11:45.963Z,46.29
2022-09-22T17:14:15.642Z,47.03
2022-09-22T17:16:45.018Z,48.09
2022-09-22T17:19:15.542Z,49.18
2022-09-22T17:21:44.113Z,49.38
2022-09-22T17:24:12.039Z,49.82
2022-09-22T17:26:47.439Z,50.92
2022-09-22T17:29:17.916Z,52.06
2022-09-22T17:31:48.237Z,52.14
2022-09-22T17:34:17.179Z,52.42
2022-09-22T17:36:45.905Z,53.12
2022-09-22T17:39:14.072Z,53.33
2022-09-22T17:41:45.573Z,53.52
2022-09-22T17:44:14.733Z,53.63
2022-09-22T17:46:58.136Z,54.05
2022-09-22T17:49:43.612Z,54.36
2022-09-22T17:52:29.708Z,54.42
2022-09-22T17:55:12.004Z,54.89
2022-09-22T17:57:42.147Z,54.94
2022-09-22T18:00:12.331Z,54.74
2022-09-22T18:02:41.984Z,54.70
2022-09-22T18:05:12.131Z,54.88
2022-09-22T18:07:40.700Z,54.57
2022-09-22T18:10:11.112Z,54.61
2022-09-22T18:12:39.481Z,54.95
2022-09-22T18:15:08.431Z,55.12
2022-09-22T18:17:41.682Z,55.16
2022-09-22T18:20:13.143Z,55.36
2022-09-22T18:22:41.751Z,55.60
2022-09-22T18:25:10.470Z,55.67
2022-09-22T18:27:40.024Z,55.88
2022-09-22T18:30:10.080Z,55.93
2022-09-22T18:32:40.200Z,56.06
2022-09-22T18:35:08.930Z,56.56
2022-09-22T18:37:38.286Z,56.41
2022-09-22T18:40:06.849Z,56.66
2022-09-22T18:42:36.696Z,57.04
2022-09-22T18:45:05.306Z,57.40
2022-09-22T18:47:39.722Z,57.96
2022-09-22T18:50:08.709Z,57.98
2022-09-22T18:52:42.218Z,58.83
2022-09-22T18:55:14.096Z,58.69
2022-09-22T18:57:42.038Z,58.96
2022-09-22T19:00:15.024Z,58.99
2022-09-22T19:02:43.090Z,59.15
2022-09-22T19:05:11.312Z,59.27
2022-09-22T19:07:43.824Z,59.25
2022-09-22T19:10:14.400Z,59.29
2022-09-22T19:12:43.130Z,59.37
2022-09-22T19:15:15.252Z,59.34
2022-09-22T19:17:45.154Z,59.51
2022-09-22T19:20:15.043Z,59.71
2022-09-22T19:22:44.842Z,60.05
2022-09-22T19:25:13.218Z,59.86
2022-09-22T19:27:41.275Z,60.10
2022-09-22T19:30:10.143Z,60.07
2022-09-22T19:32:38.148Z,60.53
2022-09-22T19:35:07.822Z,60.53
2022-09-22T19:37:35.797Z,60.84
2022-09-22T19:40:06.551Z,60.58
2022-09-22T19:42:40.112Z,62.25
2022-09-22T19:45:09.075Z,63.09
2022-09-22T19:47:37.665Z,62.98
2022-09-22T19:50:07.910Z,63.17
2022-09-22T19:52:36.686Z,63.60
2022-09-22T19:55:07.120Z,64.47
2022-09-22T19:57:41.133Z,64.32
2022-09-22T20:00:10.563Z,64.67
2022-09-22T20:02:42.147Z,64.36
2022-09-22T20:05:19.664Z,65.17
2022-09-22T20:07:47.808Z,64.53
2022-09-22T20:10:19.029Z,64.77
2022-09-22T20:12:47.262Z,64.73
2022-09-22T20:15:15.825Z,65.31
2022-09-22T20:17:46.206Z,65.09
2022-09-22T20:20:15.703Z,65.39
2022-09-22T20:22:43.864Z,65.45
2022-09-22T20:25:24.158Z,66.16
2022-09-22T20:27:52.429Z,66.49
2022-09-22T20:30:20.378Z,67.13
2022-09-22T20:32:48.762Z,67.13
2022-09-22T20:35:19.071Z,68.07
2022-09-22T20:37:46.986Z,67.93
2022-09-22T20:40:18.615Z,68.70
2022-09-22T20:42:48.776Z,69.11
2022-09-22T20:45:18.274Z,69.09
2022-09-22T20:47:46.248Z,69.39
2022-09-22T20:50:14.338Z,69.20
2022-09-22T20:52:43.550Z,68.26
2022-09-22T20:55:12.344Z,68.34
2022-09-22T20:57:40.892Z,68.68
2022-09-22T21:00:12.933Z,68.31
2022-09-22T21:02:41.113Z,68.10
2022-09-22T21:05:09.660Z,68.25
2022-09-22T21:07:37.830Z,68.43
2022-09-22T21:10:24.359Z,68.14
2022-09-22T21:12:55.063Z,67.74
2022-09-22T21:15:24.582Z,68.24
2022-09-22T21:17:53.006Z,68.80
2022-09-22T21:20:21.614Z,68.79
2022-09-22T21:22:49.594Z,69.37
2022-09-22T21:25:17.743Z,69.59
2022-09-22T21:27:46.424Z,70.33
2022-09-22T21:30:15.058Z,69.83
2022-09-22T21:32:44.386Z,70.25
2022-09-22T21:35:16.666Z,70.29
2022-09-22T21:37:44.824Z,70.68
2022-09-22T21:40:13.354Z,71.29
2022-09-22T21:42:41.442Z,71.17
2022-09-22T21:45:10.475Z,71.73
2022-09-22T21:47:38.369Z,71.46
2022-09-22T21:50:09.323Z,72.71
2022-09-22T21:52:38.578Z,72.82
2022-09-22T21:55:07.789Z,72.56
2022-09-22T21:57:35.876Z,72.39
2022-09-22T22:00:05.748Z,72.39
2022-09-22T22:02:53.674Z,72.37
2022-09-22T22:05:22.998Z,73.05
2022-09-22T22:07:51.004Z,73.14
2022-09-22T22:10:19.242Z,73.61
2022-09-22T22:12:47.268Z,73.71
2022-09-22T22:15:15.635Z,74.20
2022-09-22T22:17:43.613Z,74.04
2022-09-22T22:20:11.523Z,74.20
2022-09-22T22:22:40.821Z,74.33
2022-09-22T22:25:13.754Z,73.76
2022-09-22T22:27:45.530Z,74.15
2022-09-22T22:30:14.454Z,74.24
2022-09-22T22:32:42.454Z,74.25
2022-09-22T22:35:11.672Z,73.78
2022-09-22T22:37:41.032Z,73.97
2022-09-22T22:40:10.099Z,74.05
2022-09-22T22:42:38.293Z,74.57
2022-09-22T22:45:06.943Z,74.69
2022-09-22T22:47:35.007Z,75.30
2022-09-22T22:50:03.013Z,75.04
2022-09-22T22:52:31.304Z,75.01
2022-09-22T22:55:00.575Z,75.21
2022-09-22T22:57:28.967Z,75.48
2022-09-22T22:59:57.327Z,75.67
2022-09-22T23:02:25.713Z,75.71
2022-09-22T23:04:54.329Z,75.96
2022-09-22T23:07:22.301Z,75.75
2022-09-22T23:10:06.117Z,76.66
2022-09-22T23:12:36.334Z,76.61
2022-09-22T23:15:05.054Z,76.27
2022-09-22T23:17:33.493Z,76.55
2022-09-22T23:20:01.419Z,76.90
2022-09-22T23:22:30.680Z,77.23
2022-09-22T23:24:58.753Z,76.91
2022-09-22T23:27:26.893Z,76.60
2022-09-22T23:29:57.229Z,76.80
2022-09-22T23:32:25.616Z,77.35
2022-09-22T23:34:53.643Z,77.65
2022-09-22T23:37:21.682Z,77.05
2022-09-22T23:39:50.382Z,77.00
2022-09-22T23:42:18.303Z,77.71
2022-09-22T23:44:46.388Z,77.36
2022-09-22T23:47:16.357Z,77.67
2022-09-22T23:49:44.461Z,77.40
2022-09-22T23:52:12.579Z,77.76
2022-09-22T23:54:40.462Z,77.74
2022-09-22T23:57:08.389Z,78.07
2022-09-22T23:59:36.290Z,77.94
